createdAt,value
2022-12-01T00:00:36.285Z,29.70
2022-12-01T00:05:39.971Z,31.13
2022-12-01T00:10:43.550Z,31.27
2022-12-01T00:15:49.269Z,30.70
2022-12-01T00:20:57.267Z,30.83
2022-12-01T00:26:05.848Z,30.52
2022-12-01T00:31:27.817Z,30.90
2022-12-01T00:36:31.570Z,32.70
2022-12-01T00:41:34.794Z,27.50
2022-12-01T00:46:41.466Z,29.02
2022-12-01T00:51:46.870Z,30.42
2022-12-01T00:56:51.256Z,32.55
2022-12-01T01:01:56.254Z,33.53
2022-12-01T01:07:00.503Z,33.72
2022-12-01T01:12:03.745Z,35.88
2022-12-01T01:17:09.438Z,33.35
2022-12-01T01:22:13.080Z,32.50
2022-12-01T01:27:17.739Z,28.23
2022-12-01T01:32:23.737Z,34.40
2022-12-01T01:37:28.460Z,29.77
2022-12-01T01:42:32.606Z,29.13
2022-12-01T01:47:38.367Z,30.00
2022-12-01T01:52:44.023Z,32.42
2022-12-01T01:57:47.936Z,33.88
2022-12-01T02:02:53.004Z,35.22
2022-12-01T02:07:57.532Z,30.33
2022-12-01T02:13:10.071Z,30.05
2022-12-01T02:18:25.441Z,22.90
2022-12-01T02:23:55.368Z,26.35
2022-12-01T02:29:20.838Z,25.92
2022-12-01T02:34:29.956Z,24.27
2022-12-01T02:39:34.788Z,22.83
2022-12-01T02:44:40.343Z,25.50
2022-12-01T02:49:52.797Z,21.45
2022-12-01T02:54:56.521Z,18.35
2022-12-01T03:00:00.458Z,20.35
2022-12-01T03:05:06.491Z,25.00
2022-12-01T03:10:14.614Z,22.98
2022-12-01T03:15:23.518Z,22.73
2022-12-01T03:20:32.331Z,18.58
2022-12-01T03:25:36.070Z,22.52
2022-12-01T03:30:39.927Z,19.30
2022-12-01T03:35:45.592Z,18.88
2022-12-01T03:40:49.285Z,20.42
2022-12-01T03:45:56.408Z,21.75
2022-12-01T03:51:06.703Z,20.50
2022-12-01T03:56:09.958Z,16.38
2022-12-01T04:01:14.176Z,17.77
2022-12-01T04:06:18.915Z,19.63
2022-12-01T04:11:40.061Z,14.13
2022-12-01T04:16:43.948Z,16.00
2022-12-01T04:21:50.514Z,14.30
2022-12-01T04:26:56.458Z,16.08
2022-12-01T04:31:59.937Z,15.82
2022-12-01T04:37:05.709Z,17.38
2022-12-01T04:42:08.946Z,16.02
2022-12-01T04:47:13.364Z,15.85
2022-12-01T04:52:21.838Z,12.82
2022-12-01T04:57:26.931Z,13.07
2022-12-01T05:02:31.420Z,13.75
2022-12-01T05:07:36.647Z,14.57
2022-12-01T05:12:41.257Z,14.18
2022-12-01T05:17:44.795Z,12.40
2022-12-01T05:23:06.254Z,15.75
2022-12-01T05:28:10.133Z,15.40
2022-12-01T05:33:13.591Z,14.23
2022-12-01T05:38:20.335Z,13.88
2022-12-01T05:43:28.939Z,13.38
2022-12-01T05:48:35.432Z,14.20
2022-12-01T05:53:40.510Z,13.90
2022-12-01T05:58:44.446Z,13.63
2022-12-01T06:03:49.455Z,12.65
2022-12-01T06:08:54.578Z,12.02
2022-12-01T06:13:58.279Z,16.08
2022-12-01T06:19:02.511Z,12.48
2022-12-01T06:24:08.447Z,12.27
2022-12-01T06:29:12.357Z,10.65
2022-12-01T06:34:16.618Z,11.40
2022-12-01T06:39:23.062Z,10.23
2022-12-01T06:44:26.590Z,10.85
2022-12-01T06:49:30.022Z,10.55
2022-12-01T06:54:37.062Z,11.18
2022-12-01T06:59:40.385Z,10.65
2022-12-01T07:04:45.980Z,8.55
2022-12-01T07:09:51.270Z,8.75
2022-12-01T07:14:54.781Z,8.20
2022-12-01T07:19:58.262Z,9.02
2022-12-01T07:25:03.033Z,8.15
2022-12-01T07:30:08.232Z,7.88
2022-12-01T07:35:11.536Z,7.38
2022-12-01T07:40:16.510Z,8.68
2022-12-01T07:45:20.504Z,8.40
2022-12-01T07:50:23.863Z,8.55
2022-12-01T07:55:29.303Z,8.35
2022-12-01T08:00:32.607Z,7.20
2022-12-01T08:05:37.224Z,9.52
2022-12-01T08:10:43.210Z,7.30
2022-12-01T08:15:46.719Z,8.35
2022-12-01T08:20:50.014Z,9.60
2022-12-01T08:25:55.042Z,9.68
2022-12-01T08:30:59.341Z,10.98
2022-12-01T08:36:03.179Z,7.95
2022-12-01T08:41:08.562Z,9.27
2022-12-01T08:46:12.345Z,10.30
2022-12-01T08:51:18.430Z,10.80
2022-12-01T08:56:26.291Z,7.75
2022-12-01T09:01:30.429Z,13.38
2022-12-01T09:06:34.878Z,10.50
2022-12-01T09:11:39.929Z,8.88
2022-12-01T09:16:44.125Z,9.82
2022-12-01T09:21:47.850Z,10.10
2022-12-01T09:26:56.285Z,9.98
2022-12-01T09:32:00.521Z,8.30
2022-12-01T09:37:03.997Z,9.68
2022-12-01T09:42:09.625Z,11.95
2022-12-01T09:47:19.391Z,8.85
2022-12-01T09:52:25.719Z,11.18
2022-12-01T09:57:33.581Z,8.45
2022-12-01T10:02:41.132Z,10.45
2022-12-01T10:07:46.889Z,9.02
2022-12-01T10:12:51.916Z,14.15
2022-12-01T10:18:03.336Z,10.02
2022-12-01T10:23:14.413Z,10.82
2022-12-01T10:28:58.502Z,9.45
2022-12-01T10:34:03.889Z,11.15
2022-12-01T10:39:08.837Z,11.38
2022-12-01T10:44:14.051Z,9.55
2022-12-01T10:49:18.613Z,10.77
2022-12-01T10:54:22.927Z,10.07
2022-12-01T10:59:31.886Z,13.82
2022-12-01T11:04:43.217Z,12.73
2022-12-01T11:09:49.043Z,13.50
2022-12-01T11:14:55.443Z,12.38
2022-12-01T11:19:59.185Z,12.63
2022-12-01T11:25:04.442Z,14.32
2022-12-01T11:30:24.787Z,13.82
2022-12-01T11:35:30.273Z,14.05
2022-12-01T11:40:37.701Z,11.43
2022-12-01T11:45:42.959Z,13.68
2022-12-01T11:51:00.409Z,6.78
2022-12-01T11:56:19.716Z,12.73
2022-12-01T12:01:39.146Z,17.47
2022-12-01T12:06:45.466Z,18.08
2022-12-01T12:11:54.479Z,19.38
2022-12-01T12:17:23.656Z,17.63
2022-12-01T12:22:33.553Z,22.90
2022-12-01T12:33:01.480Z,23.15
2022-12-01T12:38:09.232Z,19.50
2022-12-01T12:43:25.006Z,21.33
2022-12-01T12:49:03.434Z,19.73
2022-12-01T12:54:13.653Z,23.48
2022-12-01T12:59:19.531Z,19.20
2022-12-01T13:04:27.525Z,16.58
2022-12-01T13:09:40.462Z,18.77
2022-12-01T13:14:45.312Z,11.27
2022-12-01T13:19:50.212Z,13.02
2022-12-01T13:24:53.522Z,14.52
2022-12-01T13:29:57.386Z,15.63
2022-12-01T13:35:07.375Z,16.02
2022-12-01T13:40:16.371Z,17.13
2022-12-01T13:45:20.453Z,16.65
2022-12-01T13:51:00.298Z,16.63
2022-12-01T13:56:25.965Z,14.50
2022-12-01T14:01:48.865Z,13.48
2022-12-01T14:07:21.773Z,15.13
2022-12-01T14:12:29.117Z,15.95
2022-12-01T14:17:35.050Z,17.45
2022-12-01T14:22:42.020Z,14.15
2022-12-01T14:27:46.186Z,15.65
2022-12-01T14:32:49.272Z,11.85
2022-12-01T14:37:53.770Z,12.98
2022-12-01T14:43:15.603Z,11.77
2022-12-01T14:48:20.623Z,12.43
2022-12-01T14:53:27.139Z,12.90
2022-12-01T14:58:31.753Z,26.48
2022-12-01T15:03:38.948Z,15.55
2022-12-01T15:08:58.185Z,15.30
2022-12-01T15:14:25.630Z,14.80
2022-12-01T15:19:33.829Z,13.60
2022-12-01T15:24:38.471Z,13.68
2022-12-01T15:29:45.250Z,15.02
2022-12-01T15:34:50.435Z,14.07
2022-12-01T15:40:43.109Z,20.95
2022-12-01T15:45:25.188Z,15.40
2022-12-01T15:50:32.158Z,18.25
2022-12-01T15:55:38.371Z,18.20
2022-12-01T16:00:42.332Z,17.88
2022-12-01T16:05:45.896Z,17.05
2022-12-01T16:11:14.727Z,22.75
2022-12-01T16:16:37.553Z,20.65
2022-12-01T16:21:46.502Z,20.70
2022-12-01T16:26:53.396Z,28.27
2022-12-01T16:32:19.406Z,16.25
2022-12-01T16:37:25.109Z,14.25
2022-12-01T16:42:30.942Z,21.45
2022-12-01T16:47:34.484Z,39.15
2022-12-01T16:52:45.887Z,21.88
2022-12-01T16:57:55.378Z,25.48
2022-12-01T17:03:02.100Z,30.85
2022-12-01T17:08:06.455Z,17.95
2022-12-01T17:13:23.490Z,15.00
2022-12-01T17:18:31.105Z,56.30
2022-12-01T17:23:34.898Z,68.70
2022-12-01T17:28:39.924Z,61.15
2022-12-01T17:33:44.719Z,59.30
2022-12-01T17:38:49.718Z,19.67
2022-12-01T17:43:54.514Z,17.10
2022-12-01T17:48:57.984Z,14.63
2022-12-01T17:54:02.324Z,21.63
2022-12-01T17:59:07.366Z,20.38
2022-12-01T18:04:10.681Z,24.15
2022-12-01T18:09:15.723Z,26.60
2022-12-01T18:14:21.536Z,23.42
2022-12-01T18:19:26.135Z,26.55
2022-12-01T18:24:30.483Z,28.05
2022-12-01T18:29:35.723Z,29.15
2022-12-01T18:34:39.075Z,31.70
2022-12-01T18:39:42.749Z,27.83
2022-12-01T18:44:49.270Z,28.77
2022-12-01T18:49:53.046Z,28.50
2022-12-01T18:54:58.741Z,26.88
2022-12-01T19:00:08.581Z,26.83
2022-12-01T19:10:15.362Z,26.88
2022-12-01T19:15:20.222Z,26.15
2022-12-01T19:20:25.994Z,30.10
2022-12-01T19:25:29.469Z,30.30
2022-12-01T19:30:38.038Z,29.92
2022-12-01T19:35:41.403Z,27.88
2022-12-01T19:40:47.057Z,33.35
2022-12-01T19:45:52.046Z,26.88
2022-12-01T19:50:57.830Z,47.58
2022-12-01T19:56:03.165Z,40.30
2022-12-01T20:01:08.720Z,37.88
2022-12-01T20:06:13.162Z,35.17
2022-12-01T20:11:19.927Z,41.00
2022-12-01T20:16:25.637Z,52.33
2022-12-01T20:21:30.506Z,35.90
2022-12-01T20:26:35.432Z,28.65
2022-12-01T20:31:40.440Z,37.08
2022-12-01T20:36:44.031Z,35.63
2022-12-01T20:41:48.419Z,49.55
2022-12-01T20:46:53.445Z,37.45
2022-12-01T20:51:57.449Z,32.47
2022-12-01T20:57:00.914Z,32.55
2022-12-01T21:02:06.387Z,30.70
2022-12-01T21:07:11.484Z,32.00
2022-12-01T21:12:33.877Z,39.55
2022-12-01T21:17:41.158Z,40.25
2022-12-01T21:22:45.003Z,36.75
2022-12-01T21:27:48.511Z,33.65
2022-12-01T21:32:53.394Z,34.92
2022-12-01T21:38:00.045Z,38.80
2022-12-01T21:43:26.855Z,35.45
2022-12-01T21:48:34.403Z,37.53
2022-12-01T21:53:38.681Z,37.92
2022-12-01T21:58:42.279Z,38.10
2022-12-01T22:03:48.928Z,34.35
2022-12-01T22:08:53.329Z,34.13
2022-12-01T22:14:03.052Z,41.53
2022-12-01T22:19:32.448Z,36.20
2022-12-01T22:24:39.356Z,34.50
2022-12-01T22:29:45.263Z,39.17
2022-12-01T22:34:54.316Z,38.65
2022-12-01T22:40:38.890Z,30.67
2022-12-01T22:45:43.877Z,32.05
2022-12-01T22:50:52.025Z,34.75
2022-12-01T22:56:01.986Z,38.65
2022-12-01T23:01:10.244Z,35.38
2022-12-01T23:06:45.368Z,33.78
2022-12-01T23:11:55.108Z,30.85
2022-12-01T23:17:07.679Z,35.22
2022-12-01T23:22:11.567Z,38.13
2022-12-01T23:27:16.534Z,36.03
2022-12-01T23:32:19.820Z,38.95
2022-12-01T23:37:45.467Z,37.50
2022-12-01T23:42:53.043Z,37.53
2022-12-01T23:47:57.130Z,35.35
2022-12-01T23:53:00.855Z,38.97
2022-12-01T23:58:10.449Z,44.13
